Time;durP1;ratioP1;P1;durP2;ratioP2;P2;SDS_P1;SDS_P2;PMS_P1;PMS_P2;Temp;Humidity;BMP_temperature;BMP_pressure;BME280_temperature;BME280_humidity;BME280_pressure;Samples;Min_cycle;Max_cycle;Signal;HPM_P1;HPM_P2
2022/10/28 00:02:00;;;;;;;16.00;14.27;;;;;;;10.91;100.00;-18080.69;5094889;28;20191;-58
2022/10/28 00:04:27;;;;;;;16.43;14.87;;;;;;;10.83;100.00;-18078.75;5094729;28;20183;-58
2022/10/28 00:06:54;;;;;;;17.30;15.53;;;;;;;10.86;100.00;-18079.34;5094773;28;20191;-57
2022/10/28 00:09:22;;;;;;;20.73;15.23;;;;;;;10.88;100.00;-18079.84;5095030;28;20519;-58
2022/10/28 00:11:49;;;;;;;19.57;15.20;;;;;;;11.11;100.00;-18085.38;5094609;28;20191;-58
2022/10/28 00:14:16;;;;;;;21.60;15.40;;;;;;;11.16;100.00;-18086.59;5094505;28;20218;-58
2022/10/28 00:16:42;;;;;;;16.67;15.17;;;;;;;11.28;100.00;-18089.38;5095035;28;20184;-58
2022/10/28 00:19:12;;;;;;;16.63;15.13;;;;;;;11.30;100.00;-18089.84;5093570;28;20629;-57
2022/10/28 00:21:40;;;;;;;17.03;15.40;;;;;;;11.32;100.00;-18090.34;5094883;28;20557;-58
2022/10/28 00:24:09;;;;;;;17.00;15.27;;;;;;;11.08;100.00;-18084.53;5094421;28;20184;-58
2022/10/28 00:26:41;;;;;;;16.30;14.80;;;;;;;11.32;100.00;-18090.34;5094770;28;20184;-58
2022/10/28 00:29:09;;;;;;;18.27;15.40;;;;;;;11.21;100.00;-18087.81;5094623;28;20238;-59
2022/10/28 00:31:38;;;;;;;15.87;14.33;;;;;;;11.10;100.00;-18085.16;5094338;28;20243;-59
2022/10/28 00:34:11;;;;;;;15.60;14.17;;;;;;;11.14;100.00;-18086.13;5076206;28;20211;-59
2022/10/28 00:36:41;;;;;;;15.90;14.50;;;;;;;11.00;100.00;-18082.72;5094476;28;20241;-58
2022/10/28 00:39:12;;;;;;;15.57;14.10;;;;;;;11.17;100.00;-18086.84;5094142;28;20184;-58
2022/10/28 00:41:43;;;;;;;15.53;14.33;;;;;;;11.22;100.00;-18088.03;5094511;28;20184;-58
2022/10/28 00:44:46;;;;;;;15.77;14.40;;;;;;;11.35;100.00;-18091.19;5094244;28;20649;-57
2022/10/28 00:47:18;;;;;;;14.73;13.53;;;;;;;11.35;100.00;-18091.19;5094396;28;20199;-58
2022/10/28 00:49:48;;;;;;;14.50;13.30;;;;;;;11.40;100.00;-18092.38;5094316;28;20536;-57
2022/10/28 00:52:19;;;;;;;13.83;12.73;;;;;;;11.49;100.00;-18094.31;5075763;28;20188;-57
2022/10/28 00:54:46;;;;;;;11.80;11.07;;;;;;;11.55;100.00;-18095.75;5093837;28;20304;-58
2022/10/28 00:57:18;;;;;;;12.10;11.07;;;;;;;11.61;100.00;-18097.34;5094149;28;20627;-58
2022/10/28 00:59:49;;;;;;;11.87;11.07;;;;;;;11.53;100.00;-18095.28;5093899;28;20298;-58
2022/10/28 01:02:17;;;;;;;12.10;11.30;;;;;;;11.80;100.00;-18101.91;5093694;28;20203;-57
2022/10/28 01:04:44;;;;;;;13.27;12.27;;;;;;;11.82;100.00;-18102.28;5093743;28;20185;-57
2022/10/28 01:07:11;;;;;;;13.93;12.70;;;;;;;11.90;100.00;-18104.22;5093914;28;20627;-58
2022/10/28 01:09:39;;;;;;;13.53;12.57;;;;;;;11.97;100.00;-18105.91;5093849;28;20188;-57
2022/10/28 01:12:17;;;;;;;13.67;12.67;;;;;;;11.98;100.00;-18106.03;5093822;28;20574;-58
2022/10/28 01:15:00;;;;;;;13.97;12.87;;;;;;;11.98;100.00;-18106.16;5093686;28;20188;-57
2022/10/28 01:17:44;;;;;;;14.10;13.03;;;;;;;12.09;100.00;-18108.81;5093335;28;20277;-58
2022/10/28 01:20:46;;;;;;;11.80;11.00;;;;;;;11.89;100.00;-18103.97;5093416;28;20195;-58
2022/10/28 01:23:22;;;;;;;12.27;11.57;;;;;;;11.77;100.00;-18101.09;5093797;28;20607;-58
2022/10/28 01:26:39;;;;;;;12.67;11.47;;;;;;;11.83;100.00;-18102.53;5093320;28;20183;-58
2022/10/28 01:29:47;;;;;;;11.00;10.30;;;;;;;11.59;100.00;-18096.84;5093025;28;20184;-58
2022/10/28 01:32:24;;;;;;;10.30;9.60;;;;;;;11.27;100.00;-18087.38;5072350;28;20199;-58
2022/10/28 01:35:01;;;;;;;10.70;9.90;;;;;;;10.99;100.00;-17444.63;5093249;28;20626;-58
2022/10/28 01:37:34;;;;;;;9.57;9.07;;;;;;;10.78;100.00;-18075.56;5093270;28;20192;-57
2022/10/28 01:40:08;;;;;;;10.00;9.50;;;;;;;11.01;100.00;-17763.13;5093363;28;20194;-58
2022/10/28 01:42:42;;;;;;;9.23;8.63;;;;;;;10.94;100.00;-18079.41;5092999;28;20188;-58
2022/10/28 01:45:15;;;;;;;10.17;9.27;;;;;;;10.91;100.00;-18080.56;5092836;28;20280;-57
2022/10/28 01:47:50;;;;;;;9.63;9.13;;;;;;;10.85;100.00;-18079.22;5093286;28;20590;-58
2022/10/28 01:50:24;;;;;;;9.80;9.20;;;;;;;10.84;100.00;-18079.00;5093010;28;20260;-59
2022/10/28 01:52:54;;;;;;;9.70;8.87;;;;;;;10.69;100.00;-18075.25;5092883;28;20215;-58
2022/10/28 01:55:26;;;;;;;9.70;9.10;;;;;;;10.91;100.00;-18080.56;5092939;28;20210;-58
2022/10/28 01:57:57;;;;;;;10.23;9.63;;;;;;;10.96;100.00;-18081.75;5092741;28;20186;-58
2022/10/28 02:00:25;;;;;;;10.17;9.47;;;;;;;10.91;100.00;-18080.56;5092489;28;20194;-56
2022/10/28 02:02:55;;;;;;;11.20;10.03;;;;;;;10.98;100.00;-18082.38;5092672;28;20187;-57
2022/10/28 02:05:41;;;;;;;10.93;9.93;;;;;;;11.01;100.00;-18082.97;5092548;28;20194;-58
2022/10/28 02:08:30;;;;;;;9.67;9.13;;;;;;;10.62;100.00;-18073.66;5092494;28;20233;-58
2022/10/28 02:11:10;;;;;;;9.93;9.37;;;;;;;10.56;100.00;-18072.09;5092692;28;20254;-57
2022/10/28 02:13:46;;;;;;;10.80;9.93;;;;;;;10.29;100.00;-18065.81;5092811;28;20235;-58
2022/10/28 02:16:24;;;;;;;10.50;9.07;;;;;;;10.43;100.00;-18069.09;5092358;28;20191;-57
2022/10/28 02:19:02;;;;;;;9.37;8.63;;;;;;;10.40;100.00;-18068.47;5092239;28;20184;-57
2022/10/28 02:21:37;;;;;;;9.10;8.63;;;;;;;10.31;100.00;-18066.31;5092244;28;20184;-60
2022/10/28 02:24:11;;;;;;;10.40;9.90;;;;;;;10.06;100.00;-18060.38;5092148;28;20225;-58
2022/10/28 02:26:42;;;;;;;11.07;10.27;;;;;;;10.16;100.00;-18062.69;5092183;28;20191;-59
2022/10/28 02:29:16;;;;;;;11.80;10.80;;;;;;;10.20;100.00;-18063.66;5092459;28;20188;-60
2022/10/28 02:31:49;;;;;;;11.90;10.90;;;;;;;10.39;100.00;-18068.25;5091787;28;20232;-57
2022/10/28 02:34:21;;;;;;;53.23;15.10;;;;;;;10.24;100.00;-18064.59;5091862;28;20212;-57
2022/10/28 02:36:51;;;;;;;37.93;13.37;;;;;;;10.42;100.00;-18068.97;5092016;28;20270;-58
2022/10/28 02:39:22;;;;;;;122.77;14.80;;;;;;;10.51;100.00;-18071.13;5092264;28;20629;-57
2022/10/28 02:41:54;;;;;;;22.77;14.23;;;;;;;10.51;100.00;-18071.03;5091164;28;20188;-58
2022/10/28 02:44:26;;;;;;;44.93;15.03;;;;;;;10.50;100.00;-18070.91;5091835;28;20184;-58
2022/10/28 02:46:57;;;;;;;29.33;14.50;;;;;;;10.57;100.00;-18072.34;5092160;28;20249;-59
2022/10/28 02:49:28;;;;;;;77.43;17.13;;;;;;;10.57;100.00;-18072.47;5091898;28;20188;-58
2022/10/28 02:52:00;;;;;;;231.17;23.00;;;;;;;10.69;100.00;-18075.25;5091772;28;20188;-58
2022/10/28 02:54:33;;;;;;;247.47;27.10;;;;;;;10.71;100.00;-18075.84;5091779;28;20208;-57
2022/10/28 02:57:04;;;;;;;340.47;33.90;;;;;;;10.73;100.00;-18076.34;5091680;28;20681;-58
2022/10/28 02:59:31;;;;;;;254.50;32.00;;;;;;;10.79;100.00;-18077.66;5092046;28;20188;-58
2022/10/28 03:01:58;;;;;;;385.53;42.13;;;;;;;10.84;100.00;-18078.88;5091720;28;20188;-59
2022/10/28 03:04:26;;;;;;;583.47;68.30;;;;;;;10.91;100.00;-18080.56;5092036;28;20540;-59
2022/10/28 03:06:53;;;;;;;529.23;69.83;;;;;;;10.98;100.00;-18082.25;5091973;28;20188;-58
2022/10/28 03:09:20;;;;;;;544.53;77.73;;;;;;;11.05;100.00;-18083.81;5091549;28;20211;-58
2022/10/28 03:11:47;;;;;;;474.37;68.97;;;;;;;10.98;100.00;-18082.38;5091651;28;20204;-58
2022/10/28 03:14:14;;;;;;;441.57;64.67;;;;;;;11.05;100.00;-18083.81;5091469;28;20203;-58
2022/10/28 03:16:41;;;;;;;491.27;64.67;;;;;;;11.04;100.00;-18083.69;5091757;28;20653;-57
2022/10/28 03:19:07;;;;;;;526.43;69.07;;;;;;;11.01;100.00;-18082.97;5091751;28;20635;-58
2022/10/28 03:21:36;;;;;;;540.67;67.87;;;;;;;11.05;100.00;-18083.94;5091473;28;20616;-59
2022/10/28 03:24:03;;;;;;;344.37;55.57;;;;;;;11.09;100.00;-18084.91;5091513;28;20180;-58
2022/10/28 03:26:29;;;;;;;686.87;81.53;;;;;;;11.09;100.00;-18084.91;5091423;28;20188;-58
2022/10/28 03:28:56;;;;;;;410.73;59.80;;;;;;;11.11;100.00;-18085.38;5091550;28;20188;-59
2022/10/28 03:31:23;;;;;;;532.50;72.67;;;;;;;11.14;100.00;-18086.13;5091247;28;20232;-58
2022/10/28 03:33:50;;;;;;;554.70;75.70;;;;;;;11.14;100.00;-18086.13;5091656;28;20208;-58
2022/10/28 03:36:17;;;;;;;384.27;61.37;;;;;;;11.16;100.00;-18086.47;5091327;28;20192;-58
2022/10/28 03:38:45;;;;;;;630.60;86.13;;;;;;;11.20;100.00;-18087.44;5091409;28;20190;-59
2022/10/28 03:41:12;;;;;;;902.63;113.57;;;;;;;11.28;100.00;-18089.50;5073851;28;20189;-58
2022/10/28 03:43:39;;;;;;;777.97;116.10;;;;;;;11.35;100.00;-18091.06;5091638;28;20188;-58
2022/10/28 03:46:06;;;;;;;461.87;75.27;;;;;;;11.42;100.00;-18092.75;5091373;28;20447;-58
2022/10/28 03:48:33;;;;;;;547.57;89.63;;;;;;;11.46;100.00;-18093.84;5091323;28;20204;-58
2022/10/28 03:51:00;;;;;;;675.67;97.83;;;;;;;11.48;100.00;-18094.19;5091245;28;20558;-57
2022/10/28 03:53:27;;;;;;;764.17;109.90;;;;;;;11.37;100.00;-18091.66;5092751;28;20590;-58
2022/10/28 03:55:56;;;;;;;1029.60;152.27;;;;;;;11.59;100.00;-18096.72;5095059;28;20275;-59
2022/10/28 03:58:23;;;;;;;983.37;147.33;;;;;;;11.63;100.00;-18097.69;5094836;28;20192;-58
2022/10/28 04:00:51;;;;;;;746.57;113.80;;;;;;;11.69;100.00;-18099.16;5095080;28;20192;-59
2022/10/28 04:03:19;;;;;;;1007.43;153.63;;;;;;;11.74;100.00;-18100.34;5094704;28;20194;-59
2022/10/28 04:05:47;;;;;;;618.97;112.10;;;;;;;11.87;100.00;-18103.50;5094993;28;20188;-58
2022/10/28 04:08:14;;;;;;;601.60;105.33;;;;;;;11.90;100.00;-18104.34;5095042;28;20218;-58
2022/10/28 04:10:42;;;;;;;693.20;123.47;;;;;;;11.93;100.00;-18104.81;5094787;28;20180;-59
2022/10/28 04:13:11;;;;;;;733.60;124.63;;;;;;;11.94;100.00;-18105.06;5094621;28;20188;-59
2022/10/28 04:15:37;;;;;;;617.03;114.20;;;;;;;12.01;100.00;-18106.75;5094982;28;20188;-60
2022/10/28 04:18:05;;;;;;;394.03;90.70;;;;;;;11.96;100.00;-18105.53;5094884;28;20185;-59
2022/10/28 04:20:32;;;;;;;821.80;129.83;;;;;;;11.64;100.00;-18097.94;5094483;28;20191;-59
2022/10/28 04:22:59;;;;;;;655.37;107.60;;;;;;;12.07;100.00;-18108.19;5094387;28;20184;-59
2022/10/28 04:25:27;;;;;;;710.53;114.43;;;;;;;12.10;100.00;-18108.91;5094412;28;20187;-58
2022/10/28 04:27:54;;;;;;;455.77;84.40;;;;;;;12.02;100.00;-18107.09;5094848;28;20195;-58
2022/10/28 04:30:23;;;;;;;531.17;83.13;;;;;;;12.17;100.00;-18110.59;5094211;28;20687;-59
2022/10/28 04:32:50;;;;;;;607.33;85.40;;;;;;;12.13;100.00;-18109.75;5094575;28;20184;-59
2022/10/28 04:35:17;;;;;;;449.90;70.63;;;;;;;12.22;100.00;-18111.94;5094171;28;20207;-58
2022/10/28 04:37:44;;;;;;;746.80;88.00;;;;;;;12.23;100.00;-18112.06;5094487;28;20658;-60
2022/10/28 04:40:11;;;;;;;595.47;72.83;;;;;;;12.23;100.00;-18112.19;5094487;28;20535;-58
2022/10/28 04:42:38;;;;;;;550.60;64.40;;;;;;;12.21;100.00;-18111.69;5094461;28;20582;-60
2022/10/28 04:45:06;;;;;;;211.67;46.27;;;;;;;12.31;100.00;-18113.97;5094111;28;20181;-59
2022/10/28 04:47:35;;;;;;;343.53;52.57;;;;;;;12.30;100.00;-18113.75;5094235;28;20200;-59
2022/10/28 04:50:03;;;;;;;279.00;45.07;;;;;;;12.20;100.00;-18111.44;5093831;28;20184;-60
2022/10/28 04:52:30;;;;;;;562.60;63.63;;;;;;;12.35;100.00;-18114.94;5093738;28;20184;-58
2022/10/28 04:54:57;;;;;;;482.77;55.87;;;;;;;12.42;100.00;-18116.50;5093820;28;20219;-60
2022/10/28 04:57:24;;;;;;;364.57;49.27;;;;;;;12.33;100.00;-18114.47;5094307;28;20231;-58
2022/10/28 04:59:51;;;;;;;553.30;60.50;;;;;;;12.35;100.00;-18115.06;5093478;28;20249;-59
2022/10/28 05:02:18;;;;;;;159.50;37.57;;;;;;;12.46;100.00;-18117.47;5093826;28;20188;-59
2022/10/28 05:04:46;;;;;;;278.80;42.47;;;;;;;12.48;100.00;-18117.97;5093248;28;20647;-60
2022/10/28 05:07:13;;;;;;;539.87;59.70;;;;;;;12.57;100.00;-18120.25;5093843;28;20184;-58
2022/10/28 05:09:40;;;;;;;327.87;44.73;;;;;;;12.53;100.00;-18119.28;5093856;28;20188;-59
2022/10/28 05:12:07;;;;;;;360.37;48.37;;;;;;;12.36;100.00;-18115.31;5093781;28;20198;-59
2022/10/28 05:14:34;;;;;;;252.47;44.90;;;;;;;12.39;100.00;-18115.78;5093639;28;20200;-60
2022/10/28 05:17:01;;;;;;;384.80;53.27;;;;;;;12.34;100.00;-18114.81;5093306;28;20643;-59
2022/10/28 05:19:29;;;;;;;284.70;45.63;;;;;;;12.40;100.00;-18116.16;5093574;28;20642;-59
2022/10/28 05:21:58;;;;;;;279.67;45.43;;;;;;;12.33;100.00;-18114.59;5075498;28;20394;-59
2022/10/28 05:24:25;;;;;;;347.33;47.97;;;;;;;12.06;100.00;-18108.06;5093545;28;20555;-59
2022/10/28 05:26:51;;;;;;;452.77;56.20;;;;;;;12.14;100.00;-18110.00;5093251;28;20188;-60
2022/10/28 05:29:19;;;;;;;399.63;55.23;;;;;;;12.16;100.00;-18110.50;5093109;28;20184;-59
2022/10/28 05:31:46;;;;;;;529.77;57.40;;;;;;;12.22;100.00;-18111.94;5073112;28;20196;-59
2022/10/28 05:34:13;;;;;;;455.57;56.17;;;;;;;12.23;100.00;-18112.06;5065226;28;20209;-60
2022/10/28 05:36:40;;;;;;;420.03;53.90;;;;;;;12.31;100.00;-18114.09;5052483;28;20204;-60
2022/10/28 05:39:08;;;;;;;258.80;43.80;;;;;;;12.33;100.00;-18114.59;5053168;28;20279;-59
2022/10/28 05:41:35;;;;;;;141.10;39.93;;;;;;;12.42;100.00;-18116.50;5052570;28;20185;-59
2022/10/28 05:44:02;;;;;;;192.63;41.33;;;;;;;12.26;100.00;-18112.91;5052749;28;20280;-59
2022/10/28 05:46:29;;;;;;;233.77;44.90;;;;;;;12.39;100.00;-18115.78;5052570;28;20212;-59
2022/10/28 05:48:56;;;;;;;123.90;38.40;;;;;;;12.38;100.00;-18115.66;5052895;28;20213;-59
2022/10/28 05:51:23;;;;;;;198.17;40.90;;;;;;;12.27;100.00;-18113.13;5052407;28;20563;-60
2022/10/28 05:53:50;;;;;;;183.67;40.73;;;;;;;12.30;100.00;-18113.75;5052576;28;20190;-60
2022/10/28 05:56:18;;;;;;;192.53;44.93;;;;;;;12.38;100.00;-18115.56;5052611;28;20205;-60
2022/10/28 05:58:46;;;;;;;115.77;40.33;;;;;;;12.35;100.00;-18115.06;5052180;28;20191;-60
2022/10/28 06:01:13;;;;;;;124.80;40.60;;;;;;;12.48;100.00;-18118.06;5052092;28;20277;-59
2022/10/28 06:03:40;;;;;;;134.83;40.03;;;;;;;12.51;100.00;-18118.81;5052066;28;20199;-60
2022/10/28 06:06:07;;;;;;;113.30;40.80;;;;;;;12.49;100.00;-18118.31;5052336;28;20644;-58
2022/10/28 06:08:34;;;;;;;86.67;41.27;;;;;;;12.51;100.00;-18118.69;5052322;28;20186;-59
2022/10/28 06:11:01;;;;;;;245.13;45.10;;;;;;;12.60;100.00;-18120.84;5052324;28;20200;-59
2022/10/28 06:13:29;;;;;;;102.10;43.07;;;;;;;12.42;100.00;-18116.63;5052344;28;20185;-58
2022/10/28 06:15:57;;;;;;;95.37;44.53;;;;;;;12.77;100.00;-18125.06;5051210;28;20205;-58
2022/10/28 06:18:24;;;;;;;94.17;43.07;;;;;;;12.74;100.00;-18124.22;5051952;28;20192;-58
2022/10/28 06:20:53;;;;;;;90.90;41.93;;;;;;;12.80;100.00;-18125.66;5051849;28;20212;-59
2022/10/28 06:23:20;;;;;;;94.53;41.63;;;;;;;12.75;100.00;-18124.47;5052031;28;20235;-60
2022/10/28 06:25:47;;;;;;;89.33;39.07;;;;;;;12.78;100.00;-18125.19;5051957;28;20552;-60
2022/10/28 06:28:14;;;;;;;73.27;39.53;;;;;;;12.79;100.00;-18125.56;5033948;28;20182;-59
2022/10/28 06:30:42;;;;;;;79.37;37.50;;;;;;;12.89;100.00;-18127.84;5051462;28;20236;-59
2022/10/28 06:33:11;;;;;;;68.10;36.43;;;;;;;12.76;100.00;-18124.81;5051544;28;20277;-59
2022/10/28 06:35:38;;;;;;;99.37;37.47;;;;;;;12.91;100.00;-18128.31;5052003;28;20248;-59
2022/10/28 06:38:05;;;;;;;69.57;34.00;;;;;;;12.98;100.00;-18130.00;5051642;28;20284;-59
2022/10/28 06:40:32;;;;;;;71.23;34.83;;;;;;;12.95;100.00;-18129.28;5052110;28;20532;-59
2022/10/28 06:43:01;;;;;;;63.93;34.13;;;;;;;12.83;100.00;-18126.41;5051701;28;20273;-59
2022/10/28 06:45:29;;;;;;;64.13;33.87;;;;;;;12.79;100.00;-18125.56;5071520;28;21072;-59
2022/10/28 06:47:58;;;;;;;67.70;30.33;;;;;;;12.87;100.00;-18127.34;5074389;28;20203;-59
2022/10/28 06:50:28;;;;;;;63.83;28.40;;;;;;;13.02;100.00;-18130.97;5072310;28;20523;-59
2022/10/28 06:52:56;;;;;;;48.23;28.10;;;;;;;13.09;100.00;-18132.66;5071327;28;20193;-58
2022/10/28 06:55:24;;;;;;;48.63;27.00;;;;;;;13.12;100.00;-18133.38;5081702;28;20197;-59
2022/10/28 06:57:51;;;;;;;43.67;27.47;;;;;;;13.21;100.00;-18135.44;5091682;28;20184;-58
2022/10/28 07:00:18;;;;;;;45.93;28.70;;;;;;;13.14;100.00;-18133.88;5074353;28;20210;-60
2022/10/28 07:02:50;;;;;;;48.07;28.90;;;;;;;13.30;100.00;-18137.59;5091771;28;20229;-59
2022/10/28 07:05:19;;;;;;;60.07;34.53;;;;;;;13.44;100.00;-18140.84;5091817;28;20180;-58
2022/10/28 07:07:46;;;;;;;71.30;36.73;;;;;;;13.34;100.00;-18138.44;5091757;28;20571;-61
2022/10/28 07:10:16;;;;;;;77.87;39.43;;;;;;;13.24;100.00;-18136.16;5091826;28;20203;-58
2022/10/28 07:12:43;;;;;;;68.07;41.00;;;;;;;13.17;100.00;-18134.59;5091050;28;20188;-61
2022/10/28 07:15:11;;;;;;;62.60;38.37;;;;;;;13.32;100.00;-18138.09;5072749;28;20303;-59
2022/10/28 07:17:38;;;;;;;75.53;40.10;;;;;;;13.46;100.00;-18141.31;5085950;28;20203;-58
2022/10/28 07:20:05;;;;;;;67.03;39.30;;;;;;;13.53;100.00;-18143.13;5082034;28;20702;-58
2022/10/28 07:22:33;;;;;;;66.57;36.57;;;;;;;13.65;100.00;-18146.03;5081003;28;20193;-58
2022/10/28 07:25:00;;;;;;;66.70;36.20;;;;;;;13.81;100.00;-18149.75;5079798;28;20188;-59
2022/10/28 07:27:27;;;;;;;63.40;33.90;;;;;;;14.00;100.00;-18154.31;5050973;28;20185;-58
2022/10/28 07:29:54;;;;;;;60.50;32.47;;;;;;;14.05;100.00;-18155.41;5055410;28;20595;-59
2022/10/28 07:32:21;;;;;;;48.40;30.57;;;;;;;14.03;100.00;-18154.94;5054953;28;20182;-57
2022/10/28 07:34:50;;;;;;;43.53;26.27;;;;;;;14.05;100.00;-18155.53;5055251;28;20205;-59
2022/10/28 07:37:17;;;;;;;43.73;26.37;;;;;;;14.09;100.00;-18156.47;5075422;28;20196;-58
2022/10/28 07:39:45;;;;;;;39.57;25.67;;;;;;;14.37;100.00;-18162.97;5095450;28;20191;-58
2022/10/28 07:42:12;;;;;;;38.43;26.97;;;;;;;14.61;100.00;-18168.88;5095136;28;20287;-58
2022/10/28 07:44:39;;;;;;;39.13;27.20;;;;;;;14.71;100.00;-16569.56;5094981;28;20565;-59
2022/10/28 07:47:06;;;;;;;46.03;29.00;;;;;;;15.22;100.00;-14017.00;5095443;28;20195;-58
2022/10/28 07:49:35;;;;;;;43.50;28.17;;;;;;;15.46;100.00;-8886.56;5095201;28;20266;-59
2022/10/28 07:52:02;;;;;;;50.40;29.63;;;;;;;15.49;100.00;-6316.34;5080736;28;20220;-59
2022/10/28 07:54:30;;;;;;;53.63;30.40;;;;;;;16.18;100.00;1735.03;5074785;28;20212;-58
2022/10/28 07:56:59;;;;;;;57.80;31.93;;;;;;;16.94;100.00;18254.13;5056606;28;20635;-59
2022/10/28 07:59:26;;;;;;;57.70;34.03;;;;;;;17.33;100.00;56158.66;5074831;28;20232;-59
2022/10/28 08:01:52;;;;;;;65.93;33.33;;;;;;;18.05;100.00;81314.91;5074356;28;20185;-59
2022/10/28 08:04:19;;;;;;;52.23;31.37;;;;;;;19.04;100.00;150822.91;5074630;28;20205;-60
2022/10/28 08:06:46;;;;;;;43.23;29.57;;;;;;;20.02;100.00;151069.84;5074671;28;20185;-60
2022/10/28 08:09:13;;;;;;;44.43;28.87;;;;;;;20.81;100.00;151269.81;5074674;28;20192;-59
2022/10/28 08:11:43;;;;;;;37.40;27.52;;;;;;;21.59;100.00;151466.09;5074663;28;20187;-60
2022/10/28 08:14:11;;;;;;;39.05;28.58;;;;;;;22.53;100.00;151702.00;5074545;28;20200;-60
2022/10/28 08:16:38;;;;;;;41.53;26.92;;;;;;;23.70;100.00;151998.09;5078128;28;20200;-59
2022/10/28 08:19:05;;;;;;;39.67;27.80;;;;;;;24.28;100.00;152143.63;5086798;28;20211;-60
2022/10/28 08:21:32;;;;;;;35.05;26.73;;;;;;;24.97;100.00;152319.94;5072827;28;20210;-60
2022/10/28 08:23:59;;;;;;;35.35;27.90;;;;;;;25.23;100.00;152383.81;5054523;28;20196;-62
2022/10/28 08:26:26;;;;;;;40.22;27.33;;;;;;;26.09;100.00;152601.13;5054332;28;20214;-60
2022/10/28 08:28:53;;;;;;;36.50;25.27;;;;;;;26.35;100.00;152667.69;5054163;28;20185;-60
2022/10/28 08:31:21;;;;;;;35.58;24.45;;;;;;;27.07;100.00;152849.31;5053693;28;20249;-61
2022/10/28 08:33:49;;;;;;;29.17;24.02;;;;;;;26.56;100.00;152720.09;5053869;28;20181;-60
2022/10/28 08:36:16;;;;;;;28.08;23.08;;;;;;;26.93;100.00;152813.47;5053864;28;20209;-60
2022/10/28 08:38:44;;;;;;;31.80;24.25;;;;;;;27.53;97.92;152967.06;5052467;28;20251;-59
2022/10/28 08:41:21;;;;;;;27.27;23.33;;;;;;;27.98;91.48;153080.94;5052653;28;20211;-61
2022/10/28 08:44:07;;;;;;;31.55;23.55;;;;;;;28.96;87.42;153328.13;5053506;28;20256;-60
2022/10/28 08:46:52;;;;;;;33.88;23.30;;;;;;;29.48;83.32;153461.41;5071012;28;20204;-60
2022/10/28 08:49:23;;;;;;;31.63;22.17;;;;;;;30.60;75.63;153743.38;5073479;28;20185;-60
2022/10/28 08:51:57;;;;;;;36.85;24.73;;;;;;;30.48;72.99;153712.63;5073836;28;20210;-60
2022/10/28 08:54:30;;;;;;;27.67;21.90;;;;;;;30.66;71.90;153758.78;5055305;28;20184;-64
2022/10/28 08:57:03;;;;;;;25.30;21.73;;;;;;;31.39;69.00;153944.75;5077261;28;20212;-61
2022/10/28 08:59:36;;;;;;;25.08;21.73;;;;;;;31.03;69.74;153853.69;5082952;28;20583;-61
2022/10/28 09:02:18;;;;;;;25.42;22.15;;;;;;;30.12;73.56;153622.88;5084022;28;20715;-60
2022/10/28 09:04:47;;;;;;;24.42;20.35;;;;;;;30.59;71.08;153740.84;5093788;28;20233;-59
2022/10/28 09:07:18;;;;;;;22.95;20.50;;;;;;;31.12;68.84;153876.78;5092578;28;20188;-61
2022/10/28 09:09:50;;;;;;;24.95;20.08;;;;;;;30.99;70.04;153843.38;5053098;28;20213;-61
2022/10/28 09:12:34;;;;;;;23.38;20.52;;;;;;;30.84;69.95;153804.94;5053306;28;20205;-60
2022/10/28 09:15:18;;;;;;;25.83;18.33;;;;;;;31.74;65.30;154034.56;5053203;28;20221;-59
2022/10/28 09:17:53;;;;;;;23.98;18.17;;;;;;;32.37;61.06;154192.47;5087188;28;20587;-62
2022/10/28 09:20:23;;;;;;;18.65;14.98;;;;;;;32.63;59.00;154257.97;5072939;28;20220;-60
2022/10/28 09:22:56;;;;;;;20.80;14.60;;;;;;;31.64;61.72;154008.94;5073332;28;20188;-59
2022/10/28 09:25:30;;;;;;;18.92;14.95;;;;;;;31.29;62.93;153920.38;5055666;28;20290;-60
2022/10/28 09:28:15;;;;;;;18.35;14.85;;;;;;;31.18;64.94;153892.19;5073226;28;20602;-59
2022/10/28 09:30:51;;;;;;;21.38;15.95;;;;;;;30.80;66.28;153795.97;5054841;28;20258;-60
2022/10/28 09:33:32;;;;;;;21.70;17.10;;;;;;;30.55;65.98;153731.88;5073018;28;20191;-59
2022/10/28 09:36:01;;;;;;;19.13;17.17;;;;;;;30.00;70.17;153590.84;5081105;28;20203;-59
2022/10/28 09:38:30;;;;;;;19.20;17.08;;;;;;;29.65;74.05;153502.38;5081530;28;20207;-59
2022/10/28 09:41:02;;;;;;;19.63;17.42;;;;;;;28.56;79.08;153228.19;5072581;28;20220;-60
2022/10/28 09:43:32;;;;;;;24.77;18.00;;;;;;;27.47;89.58;152951.69;5073333;28;20662;-59
2022/10/28 09:46:03;;;;;;;18.95;15.05;;;;;;;27.98;86.63;153079.66;5072743;28;20238;-59
2022/10/28 09:48:36;;;;;;;14.23;11.27;;;;;;;28.05;85.21;153097.59;5071690;28;20195;-60
2022/10/28 09:51:04;;;;;;;10.38;9.52;;;;;;;27.92;86.33;153064.31;5072138;28;20181;-60
2022/10/28 09:53:40;;;;;;;10.50;9.02;;;;;;;27.73;87.82;153015.66;5072432;28;20189;-60
2022/10/28 09:56:08;;;;;;;7.95;7.47;;;;;;;26.94;90.44;152817.34;5072112;28;20204;-59
2022/10/28 09:58:36;;;;;;;11.82;7.60;;;;;;;25.78;100.00;152524.44;5071445;28;20195;-60
2022/10/28 10:01:04;;;;;;;7.85;7.07;;;;;;;25.75;100.00;152516.78;5072582;28;20177;-59
2022/10/28 10:03:33;;;;;;;7.60;7.07;;;;;;;26.03;98.96;152585.78;5072417;28;20235;-60
2022/10/28 10:06:13;;;;;;;7.38;6.85;;;;;;;26.18;98.13;152624.16;5084587;28;20194;-59
2022/10/28 10:08:41;;;;;;;7.80;7.20;;;;;;;26.37;96.67;152672.75;5086890;28;20226;-61
2022/10/28 10:11:17;;;;;;;7.43;6.40;;;;;;;25.50;100.00;152452.84;5092561;28;20188;-59
2022/10/28 10:13:45;;;;;;;6.05;5.50;;;;;;;25.66;100.00;152493.78;5092248;28;20179;-60
2022/10/28 10:16:18;;;;;;;6.68;6.13;;;;;;;26.12;100.00;152610.09;5091034;28;20208;-60
2022/10/28 10:18:51;;;;;;;6.28;5.97;;;;;;;26.50;97.17;152706.00;5067124;28;20204;-58
2022/10/28 10:21:20;;;;;;;6.18;5.78;;;;;;;26.40;97.97;152680.41;5072742;28;20678;-63
2022/10/28 10:23:46;;;;;;;10.52;6.35;;;;;;;25.68;100.00;152497.56;5072770;28;20185;-61
2022/10/28 10:26:16;;;;;;;6.70;6.05;;;;;;;25.43;100.00;152434.91;5072136;28;20207;-60
2022/10/28 10:28:46;;;;;;;6.63;5.93;;;;;;;25.11;100.00;152353.16;5071992;28;20185;-59
2022/10/28 10:31:19;;;;;;;6.18;5.88;;;;;;;25.20;100.00;152377.44;5073955;28;20242;-58
2022/10/28 10:33:52;;;;;;;5.80;4.97;;;;;;;25.14;100.00;152360.81;5072205;28;20196;-60
2022/10/28 10:36:22;;;;;;;6.80;5.50;;;;;;;25.41;100.00;152431.13;5072285;28;20209;-59
2022/10/28 10:38:54;;;;;;;6.40;5.88;;;;;;;24.81;100.00;152277.75;5072307;28;20193;-60
2022/10/28 10:41:35;;;;;;;6.18;5.55;;;;;;;24.39;100.00;152171.75;5072005;28;20230;-58
2022/10/28 10:44:02;;;;;;;7.05;6.53;;;;;;;23.50;100.00;151947.03;5071909;28;20184;-58
2022/10/28 10:46:29;;;;;;;6.05;5.65;;;;;;;24.24;100.00;152133.44;5054509;28;20299;-59
2022/10/28 10:49:15;;;;;;;5.60;5.30;;;;;;;24.20;100.00;152124.50;5071955;28;20199;-58
2022/10/28 10:51:55;;;;;;;6.25;5.95;;;;;;;24.39;100.00;152171.75;5072060;28;20191;-58
2022/10/28 10:54:23;;;;;;;7.47;6.40;;;;;;;24.58;100.00;152220.25;5072719;28;20188;-59
2022/10/28 10:56:50;;;;;;;6.97;6.38;;;;;;;24.72;100.00;152256.03;5071775;28;20205;-60
2022/10/28 10:59:28;;;;;;;6.03;5.72;;;;;;;24.50;100.00;152201.13;5072441;28;20180;-58
2022/10/28 11:01:57;;;;;;;6.07;5.60;;;;;;;24.39;100.00;152171.75;5071930;28;20272;-59
2022/10/28 11:04:29;;;;;;;5.68;5.25;;;;;;;24.46;100.00;152189.63;5067766;28;20280;-62
2022/10/28 11:06:57;;;;;;;6.13;5.93;;;;;;;24.33;100.00;152157.69;5071690;28;20231;-59
2022/10/28 11:09:30;;;;;;;5.47;5.28;;;;;;;23.35;100.00;151908.69;5071793;28;20215;-59
2022/10/28 11:11:57;;;;;;;6.10;5.72;;;;;;;22.37;100.00;151661.16;5071733;28;20703;-58
2022/10/28 11:14:25;;;;;;;9.13;6.00;;;;;;;21.98;100.00;151563.03;5071908;28;20185;-58
2022/10/28 11:16:53;;;;;;;6.55;6.15;;;;;;;21.28;100.00;151388.34;5071299;28;20215;-57